Time;durP1;ratioP1;P1;durP2;ratioP2;P2;SDS_P1;SDS_P2;PMS_P1;PMS_P2;Temp;Humidity;BMP_temperature;BMP_pressure;BME280_temperature;BME280_humidity;BME280_pressure;Samples;Min_cycle;Max_cycle;Signal;HPM_P1;HPM_P2
2021/07/09 00:02:08;;;;;;;5.82;4.22;;;21.80;71.50;;;;;;5097319;28;20069;-88
2021/07/09 00:04:34;;;;;;;5.35;3.67;;;21.70;71.60;;;;;;5079519;28;20138;-88
2021/07/09 00:07:00;;;;;;;4.88;3.63;;;21.70;71.70;;;;;;5095776;28;20039;-88
2021/07/09 00:09:27;;;;;;;6.97;3.72;;;21.70;71.90;;;;;;5099038;28;20036;-88
2021/07/09 00:11:54;;;;;;;4.05;3.47;;;21.70;72.10;;;;;;5087990;28;20031;-88
2021/07/09 00:14:26;;;;;;;7.03;3.90;;;21.60;72.20;;;;;;5100371;28;20027;-88
2021/07/09 00:16:51;;;;;;;5.32;3.15;;;21.60;72.50;;;;;;5102550;28;20036;-88
2021/07/09 00:19:17;;;;;;;4.80;3.10;;;21.60;72.50;;;;;;5087970;28;20068;-88
2021/07/09 00:21:43;;;;;;;7.22;3.42;;;21.50;72.60;;;;;;5103917;28;20481;-88
2021/07/09 00:24:10;;;;;;;4.35;3.60;;;21.60;72.70;;;;;;5080509;28;20122;-88
2021/07/09 00:26:36;;;;;;;5.22;3.08;;;21.50;72.70;;;;;;5115513;28;20032;-87
2021/07/09 00:29:03;;;;;;;4.18;3.28;;;21.50;72.80;;;;;;5118149;28;20032;-87
2021/07/09 00:31:30;;;;;;;4.57;3.70;;;21.50;72.90;;;;;;5086346;28;20036;-87
2021/07/09 00:33:57;;;;;;;4.35;3.42;;;21.50;73.10;;;;;;5078403;28;20040;-88
2021/07/09 00:36:23;;;;;;;6.72;4.03;;;21.50;73.20;;;;;;5078729;28;20458;-87
2021/07/09 00:38:49;;;;;;;3.58;3.28;;;21.40;73.40;;;;;;5078167;28;20115;-88
2021/07/09 00:41:15;;;;;;;6.30;3.58;;;21.40;73.50;;;;;;5095696;28;20131;-88
2021/07/09 00:43:41;;;;;;;4.22;3.38;;;21.40;73.70;;;;;;5101873;28;20032;-87
2021/07/09 00:46:07;;;;;;;5.43;3.83;;;21.40;73.90;;;;;;5081773;28;20036;-88
2021/07/09 00:48:34;;;;;;;8.10;3.67;;;21.40;74.10;;;;;;5078491;28;20032;-87
2021/07/09 00:51:04;;;;;;;6.60;4.22;;;21.30;74.10;;;;;;5079625;28;20481;-87
2021/07/09 00:53:30;;;;;;;5.22;4.25;;;21.30;74.20;;;;;;5078945;28;20032;-87
2021/07/09 00:55:57;;;;;;;5.47;3.80;;;21.30;74.40;;;;;;5078745;28;20073;-88
2021/07/09 00:58:22;;;;;;;5.65;3.92;;;21.20;74.50;;;;;;5078357;28;20439;-88
2021/07/09 01:00:48;;;;;;;4.05;3.60;;;21.20;74.50;;;;;;5098435;28;20036;-87
2021/07/09 01:03:15;;;;;;;5.68;3.65;;;21.20;74.90;;;;;;5117497;28;20031;-87
2021/07/09 01:05:41;;;;;;;6.30;3.53;;;21.10;75.00;;;;;;5101989;28;20048;-87
2021/07/09 01:08:07;;;;;;;3.83;3.38;;;21.10;75.10;;;;;;5100284;28;20044;-87
2021/07/09 01:10:33;;;;;;;3.88;3.28;;;21.10;75.30;;;;;;5094697;28;20086;-87
2021/07/09 01:12:59;;;;;;;11.07;3.45;;;21.00;75.50;;;;;;5080999;28;20036;-87
2021/07/09 01:15:25;;;;;;;6.78;3.72;;;21.00;75.60;;;;;;5096812;28;20044;-88
2021/07/09 01:17:51;;;;;;;7.05;3.63;;;21.00;75.80;;;;;;5098231;28;20108;-88
2021/07/09 01:20:19;;;;;;;5.88;3.28;;;21.00;75.90;;;;;;5089344;28;20036;-88
2021/07/09 01:22:47;;;;;;;5.47;3.20;;;21.00;76.00;;;;;;5087476;28;20044;-88
2021/07/09 01:25:18;;;;;;;5.10;3.30;;;21.00;76.20;;;;;;5110943;28;20036;-88
2021/07/09 01:27:45;;;;;;;4.03;3.58;;;20.90;76.30;;;;;;5105599;28;20017;-88
2021/07/09 01:30:14;;;;;;;5.55;3.50;;;20.90;76.30;;;;;;5105527;28;20032;-88
2021/07/09 01:32:40;;;;;;;5.13;3.28;;;20.90;76.40;;;;;;5086461;28;20036;-88
2021/07/09 01:35:08;;;;;;;3.92;3.28;;;20.80;76.90;;;;;;5082031;28;20374;-88
2021/07/09 01:37:34;;;;;;;3.97;3.28;;;20.80;77.20;;;;;;5085731;28;20052;-88
2021/07/09 01:40:01;;;;;;;3.55;3.20;;;20.80;77.10;;;;;;5101692;28;20503;-88
2021/07/09 01:42:26;;;;;;;4.25;3.15;;;20.80;77.30;;;;;;5081377;28;20043;-88
2021/07/09 01:44:52;;;;;;;4.93;3.30;;;20.90;77.50;;;;;;5097899;28;20028;-87
2021/07/09 01:47:19;;;;;;;5.30;3.38;;;20.80;77.30;;;;;;5118673;28;20024;-87
2021/07/09 01:49:54;;;;;;;5.57;3.83;;;20.80;77.60;;;;;;5101332;28;20041;-87
2021/07/09 01:52:21;;;;;;;5.10;3.40;;;20.80;77.80;;;;;;5105392;28;20016;-87
2021/07/09 01:54:46;;;;;;;4.80;3.58;;;20.80;77.80;;;;;;5115324;28;20051;-87
2021/07/09 01:57:12;;;;;;;4.03;3.33;;;20.80;77.90;;;;;;5100474;28;20135;-88
2021/07/09 01:59:41;;;;;;;6.10;4.15;;;20.80;77.70;;;;;;5112390;28;20071;-88
2021/07/09 02:02:07;;;;;;;8.63;4.00;;;20.80;78.00;;;;;;5081535;28;20047;-87
2021/07/09 02:04:34;;;;;;;4.55;3.20;;;20.80;78.20;;;;;;5082188;28;20036;-88
2021/07/09 02:07:00;;;;;;;4.32;3.20;;;20.80;78.20;;;;;;5087471;28;20028;-87
2021/07/09 02:09:26;;;;;;;5.15;3.78;;;20.80;78.80;;;;;;5098521;28;20043;-88
2021/07/09 02:11:52;;;;;;;6.18;3.70;;;20.80;78.30;;;;;;5098728;28;20028;-87
2021/07/09 02:14:17;;;;;;;6.13;3.47;;;20.90;78.50;;;;;;5097785;28;20036;-87
2021/07/09 02:16:43;;;;;;;4.78;4.00;;;20.80;78.50;;;;;;5098208;28;20062;-88
2021/07/09 02:19:10;;;;;;;3.90;3.38;;;20.80;78.70;;;;;;5097216;28;20064;-88
2021/07/09 02:21:37;;;;;;;4.07;3.55;;;20.80;78.80;;;;;;5098745;28;20097;-90
2021/07/09 02:24:03;;;;;;;7.65;3.60;;;20.80;78.90;;;;;;5083615;28;20028;-90
2021/07/09 02:26:28;;;;;;;4.68;3.53;;;20.80;79.10;;;;;;5119509;28;20092;-88
2021/07/09 02:28:54;;;;;;;4.28;3.22;;;20.90;79.20;;;;;;5116149;28;20036;-90
2021/07/09 02:31:20;;;;;;;4.70;3.88;;;20.90;79.40;;;;;;5099637;28;20033;-88
2021/07/09 02:33:46;;;;;;;6.63;3.65;;;20.90;79.40;;;;;;5097893;28;20062;-87
2021/07/09 02:36:12;;;;;;;4.05;3.65;;;21.00;79.50;;;;;;5120701;28;20020;-87
2021/07/09 02:38:37;;;;;;;8.43;4.18;;;21.00;79.30;;;;;;5117267;28;20056;-87
2021/07/09 02:41:03;;;;;;;7.80;3.90;;;21.00;79.30;;;;;;5098087;28;20481;-87
2021/07/09 02:43:29;;;;;;;7.15;3.97;;;21.00;79.50;;;;;;5096752;28;20052;-88
2021/07/09 02:45:55;;;;;;;9.10;3.70;;;21.00;79.60;;;;;;5096954;28;20051;-87
2021/07/09 02:48:20;;;;;;;5.43;3.92;;;21.10;79.80;;;;;;5096204;28;20036;-87
2021/07/09 02:50:47;;;;;;;7.63;3.85;;;21.10;79.80;;;;;;5111986;28;20096;-87
2021/07/09 02:53:13;;;;;;;7.38;3.85;;;21.10;80.00;;;;;;5084147;28;20404;-87
2021/07/09 02:55:39;;;;;;;4.55;3.80;;;21.10;80.30;;;;;;5097493;28;20028;-89
2021/07/09 02:58:05;;;;;;;5.05;3.92;;;21.10;80.50;;;;;;5079686;28;20150;-88
2021/07/09 03:00:31;;;;;;;5.53;3.75;;;21.10;80.70;;;;;;5100691;28;20051;-88
2021/07/09 03:02:56;;;;;;;5.72;4.18;;;21.20;80.70;;;;;;5098453;28;20036;-88
2021/07/09 03:05:22;;;;;;;6.07;4.20;;;21.20;80.80;;;;;;5097767;28;20035;-88
2021/07/09 03:07:48;;;;;;;7.03;4.15;;;21.20;81.00;;;;;;5097838;28;20085;-88
2021/07/09 03:10:14;;;;;;;5.43;4.07;;;21.20;81.40;;;;;;5097749;28;20032;-88
2021/07/09 03:12:40;;;;;;;8.15;4.32;;;21.20;81.50;;;;;;5096730;28;20043;-87
2021/07/09 03:15:08;;;;;;;14.00;6.63;;;21.20;81.70;;;;;;5092788;28;20027;-88
2021/07/09 03:17:34;;;;;;;11.30;7.30;;;21.30;81.50;;;;;;5096984;28;20138;-88
2021/07/09 03:20:00;;;;;;;10.15;7.00;;;21.40;81.40;;;;;;5098118;28;20067;-88
2021/07/09 03:22:25;;;;;;;15.48;8.13;;;21.50;81.10;;;;;;5099307;28;20036;-87
2021/07/09 03:24:51;;;;;;;16.35;7.30;;;21.60;80.50;;;;;;5120462;28;20015;-89
2021/07/09 03:27:17;;;;;;;10.98;7.50;;;21.70;80.20;;;;;;5117129;28;20103;-87
2021/07/09 03:29:42;;;;;;;8.95;7.07;;;21.80;79.80;;;;;;5107862;28;20067;-87
2021/07/09 03:32:10;;;;;;;12.00;6.47;;;21.90;79.40;;;;;;5119197;28;20043;-87
2021/07/09 03:34:37;;;;;;;9.30;6.18;;;22.10;79.00;;;;;;5115686;28;20080;-87
2021/07/09 03:37:03;;;;;;;10.32;5.97;;;22.20;78.50;;;;;;5100595;28;20505;-88
2021/07/09 03:39:28;;;;;;;6.85;5.18;;;22.40;78.50;;;;;;5078448;28;20032;-88
2021/07/09 03:41:54;;;;;;;6.13;5.03;;;22.50;78.00;;;;;;5094857;28;20136;-88
2021/07/09 03:44:20;;;;;;;6.28;4.90;;;22.60;77.50;;;;;;5095563;28;20052;-88
2021/07/09 03:46:45;;;;;;;7.30;4.32;;;22.80;77.10;;;;;;5095956;28;20073;-88
2021/07/09 03:49:18;;;;;;;6.03;4.68;;;22.90;76.60;;;;;;5094702;28;20393;-88
2021/07/09 03:51:44;;;;;;;4.93;4.05;;;23.10;76.20;;;;;;5077838;28;20063;-88
2021/07/09 03:54:12;;;;;;;7.95;4.22;;;23.30;75.80;;;;;;5103964;28;20028;-88
2021/07/09 03:56:38;;;;;;;8.52;4.72;;;23.40;75.40;;;;;;5118281;28;20024;-88
2021/07/09 03:59:04;;;;;;;7.65;4.85;;;23.60;75.00;;;;;;5102878;28;20032;-89
2021/07/09 04:01:30;;;;;;;7.03;4.10;;;23.70;74.70;;;;;;5096515;28;20043;-89
2021/07/09 04:03:56;;;;;;;4.10;3.70;;;23.80;74.00;;;;;;5094036;28;20119;-89
2021/07/09 04:06:22;;;;;;;6.90;3.28;;;24.00;73.70;;;;;;5094466;28;20028;-89
2021/07/09 04:08:48;;;;;;;3.92;2.95;;;24.10;73.30;;;;;;5105149;28;20034;-89
2021/07/09 04:11:14;;;;;;;7.38;3.35;;;24.20;72.90;;;;;;5104667;28;20020;-89
2021/07/09 04:13:41;;;;;;;4.68;3.45;;;24.30;72.50;;;;;;5115613;28;20032;-89
2021/07/09 04:16:06;;;;;;;4.05;3.20;;;24.40;72.20;;;;;;5111595;28;20299;-89
2021/07/09 04:18:34;;;;;;;6.25;2.95;;;24.50;72.00;;;;;;5098289;28;20059;-89
2021/07/09 04:21:01;;;;;;;6.25;3.08;;;24.70;71.80;;;;;;5093835;28;20497;-91
2021/07/09 04:23:27;;;;;;;3.75;2.58;;;24.70;71.40;;;;;;5095653;28;20036;-90
2021/07/09 04:25:52;;;;;;;4.70;2.70;;;24.80;71.40;;;;;;5095149;28;20078;-90
2021/07/09 04:28:18;;;;;;;3.13;2.53;;;24.90;71.10;;;;;;5096347;28;20477;-93
2021/07/09 04:30:44;;;;;;;5.18;2.50;;;25.00;70.70;;;;;;5079391;28;20032;-91
2021/07/09 04:33:10;;;;;;;3.35;2.53;;;25.10;70.20;;;;;;5095821;28;20036;-90
2021/07/09 04:35:36;;;;;;;4.40;2.55;;;25.20;69.80;;;;;;5097486;28;20033;-90
2021/07/09 04:38:01;;;;;;;3.53;2.40;;;25.20;69.60;;;;;;5086061;28;20032;-90
2021/07/09 04:40:27;;;;;;;6.90;2.40;;;25.20;69.30;;;;;;5102124;28;20023;-90
2021/07/09 04:42:53;;;;;;;3.65;2.50;;;25.30;69.50;;;;;;5118787;28;20012;-91
2021/07/09 04:45:19;;;;;;;2.53;2.33;;;25.50;69.40;;;;;;5103878;28;20043;-90
2021/07/09 04:47:44;;;;;;;5.90;2.40;;;25.60;69.00;;;;;;5095413;28;20509;-91
2021/07/09 04:50:10;;;;;;;5.22;2.88;;;25.70;68.70;;;;;;5097413;28;20039;-91
2021/07/09 04:52:36;;;;;;;2.92;2.20;;;25.70;68.40;;;;;;5078707;28;20446;-91
2021/07/09 04:55:03;;;;;;;2.88;2.30;;;25.90;68.30;;;;;;5094923;28;20028;-91
2021/07/09 04:57:28;;;;;;;3.08;2.65;;;25.90;68.10;;;;;;5079928;28;20044;-91
2021/07/09 04:59:54;;;;;;;5.45;2.30;;;26.10;68.00;;;;;;5094839;28;20036;-91
2021/07/09 05:02:20;;;;;;;2.97;2.65;;;26.20;67.50;;;;;;5096424;28;20040;-91
2021/07/09 05:04:46;;;;;;;3.83;2.70;;;26.50;67.00;;;;;;5096998;28;20043;-91
2021/07/09 05:07:12;;;;;;;4.22;2.63;;;26.70;66.50;;;;;;5096327;28;20067;-91
2021/07/09 05:09:37;;;;;;;5.10;2.83;;;26.90;65.90;;;;;;5080018;28;20080;-90
2021/07/09 05:12:03;;;;;;;3.15;2.75;;;27.10;65.00;;;;;;5096389;28;20036;-90
2021/07/09 05:14:29;;;;;;;4.95;2.80;;;27.30;64.30;;;;;;5080735;28;20114;-89
2021/07/09 05:16:55;;;;;;;6.03;2.63;;;27.50;64.20;;;;;;5080751;28;20518;-90
2021/07/09 05:19:21;;;;;;;4.28;2.80;;;27.90;64.30;;;;;;5108313;28;20013;-90
2021/07/09 05:21:47;;;;;;;4.28;2.17;;;28.30;64.10;;;;;;5092805;28;20044;-89
2021/07/09 05:24:13;;;;;;;3.55;2.30;;;28.70;63.50;;;;;;5092065;28;20066;-89
2021/07/09 05:26:42;;;;;;;4.03;2.40;;;29.10;62.80;;;;;;5108241;28;20099;-88
2021/07/09 05:29:08;;;;;;;3.78;2.55;;;29.40;61.90;;;;;;5101663;28;20060;-89
2021/07/09 05:31:35;;;;;;;4.72;3.00;;;29.70;61.50;;;;;;5089348;28;20078;-90
2021/07/09 05:34:01;;;;;;;7.43;2.20;;;30.00;60.40;;;;;;5081776;28;20526;-91
2021/07/09 05:36:28;;;;;;;2.60;2.40;;;30.40;59.30;;;;;;5091744;28;20477;-90
2021/07/09 05:38:54;;;;;;;3.97;2.20;;;30.70;58.00;;;;;;5097574;28;20386;-90
2021/07/09 05:41:20;;;;;;;3.22;2.20;;;30.80;57.40;;;;;;5094576;28;20031;-90
2021/07/09 05:43:46;;;;;;;4.20;2.55;;;31.20;57.30;;;;;;5095395;28;20067;-90
2021/07/09 05:46:11;;;;;;;4.07;2.33;;;31.50;56.50;;;;;;5077961;28;20036;-90
2021/07/09 05:48:37;;;;;;;2.90;2.30;;;31.90;55.40;;;;;;5094380;28;20434;-90
2021/07/09 05:51:03;;;;;;;7.00;2.00;;;32.40;55.10;;;;;;5095744;28;20028;-91
2021/07/09 05:53:30;;;;;;;2.30;2.10;;;33.00;54.70;;;;;;5095523;28;20075;-91
2021/07/09 05:55:57;;;;;;;3.72;2.17;;;33.30;53.80;;;;;;5096056;28;20060;-91
2021/07/09 05:58:23;;;;;;;2.45;1.98;;;33.70;53.20;;;;;;5079350;28;20408;-90
2021/07/09 06:00:49;;;;;;;5.28;1.95;;;34.00;51.90;;;;;;5102739;28;20032;-90
2021/07/09 06:03:15;;;;;;;5.53;2.25;;;34.40;51.20;;;;;;5097067;28;20036;-91
2021/07/09 06:05:41;;;;;;;2.45;2.20;;;34.50;49.90;;;;;;5081101;28;20099;-90
2021/07/09 06:08:08;;;;;;;2.45;2.20;;;34.50;49.60;;;;;;5100859;28;20125;-91
2021/07/09 06:10:36;;;;;;;3.38;2.00;;;34.60;49.40;;;;;;5081713;28;20032;-91
2021/07/09 06:13:02;;;;;;;4.13;2.00;;;34.90;49.50;;;;;;5082818;28;20047;-91
2021/07/09 06:15:28;;;;;;;22.92;2.65;;;35.30;49.00;;;;;;5101415;28;20019;-91
2021/07/09 06:17:54;;;;;;;6.30;1.95;;;35.50;47.90;;;;;;5121771;28;20036;-90
2021/07/09 06:20:20;;;;;;;3.08;1.83;;;35.60;46.70;;;;;;5104933;28;20090;-90
2021/07/09 06:22:47;;;;;;;3.40;2.50;;;35.70;46.40;;;;;;5104030;28;20044;-91
2021/07/09 06:25:14;;;;;;;1.70;1.60;;;35.60;45.20;;;;;;5088484;28;20059;-91
2021/07/09 06:27:40;;;;;;;3.10;1.80;;;35.60;45.90;;;;;;5102727;28;20040;-91
2021/07/09 06:30:07;;;;;;;7.93;2.25;;;35.80;46.00;;;;;;5099581;28;20244;-90
2021/07/09 06:32:32;;;;;;;2.08;1.98;;;36.10;45.60;;;;;;5100560;28;20060;-91
2021/07/09 06:34:58;;;;;;;3.25;2.20;;;36.30;45.80;;;;;;5094710;28;20477;-91
2021/07/09 06:37:24;;;;;;;3.38;2.03;;;36.70;45.80;;;;;;5098816;28;20058;-91
2021/07/09 06:39:50;;;;;;;1.98;1.88;;;37.00;45.00;;;;;;5081396;28;20036;-92
2021/07/09 06:42:17;;;;;;;3.47;2.10;;;37.20;44.80;;;;;;5082615;28;20098;-91
2021/07/09 06:44:43;;;;;;;2.97;2.30;;;37.30;44.30;;;;;;5082161;28;20028;-91
2021/07/09 06:47:08;;;;;;;3.15;1.92;;;37.20;42.90;;;;;;5081372;28;20032;-91
2021/07/09 06:49:34;;;;;;;3.75;2.30;;;37.10;43.30;;;;;;5081586;28;20546;-91
2021/07/09 06:52:01;;;;;;;3.00;2.10;;;37.10;42.80;;;;;;5100485;28;20042;-91
2021/07/09 06:54:27;;;;;;;2.38;1.90;;;37.10;42.50;;;;;;5080148;28;20032;-91
2021/07/09 06:56:53;;;;;;;2.38;1.90;;;37.00;42.90;;;;;;5097085;28;20043;-91
2021/07/09 06:59:19;;;;;;;2.35;2.10;;;37.20;43.50;;;;;;5098199;28;20052;-91
2021/07/09 07:01:45;;;;;;;4.20;2.20;;;37.50;43.40;;;;;;5099269;28;20058;-91
2021/07/09 07:04:11;;;;;;;4.82;2.25;;;37.80;43.10;;;;;;5115655;28;20016;-90
2021/07/09 07:06:36;;;;;;;6.15;2.28;;;38.10;43.00;;;;;;5120676;28;20089;-90
2021/07/09 07:09:03;;;;;;;3.30;1.85;;;38.60;42.70;;;;;;5103614;28;20044;-90
2021/07/09 07:11:29;;;;;;;3.50;2.20;;;38.80;41.70;;;;;;5082427;28;20098;-91
2021/07/09 07:13:55;;;;;;;2.30;2.10;;;39.00;41.30;;;;;;5097088;28;20489;-91
2021/07/09 07:16:21;;;;;;;3.05;2.30;;;38.90;41.10;;;;;;5102121;28;20028;-95
2021/07/09 07:18:47;;;;;;;3.08;2.28;;;39.00;40.50;;;;;;5080913;28;20036;-93
2021/07/09 07:21:13;;;;;;;3.40;2.25;;;39.20;40.60;;;;;;5111226;28;20087;-92
2021/07/09 07:23:39;;;;;;;3.58;1.88;;;39.30;38.90;;;;;;5097645;28;20424;-93
2021/07/09 07:26:05;;;;;;;3.58;2.00;;;39.20;39.20;;;;;;5097681;28;20028;-91
2021/07/09 07:28:30;;;;;;;1.98;1.73;;;39.50;38.80;;;;;;5097170;28;20566;-91
2021/07/09 07:30:56;;;;;;;2.88;2.00;;;39.80;39.00;;;;;;5097285;28;20044;-91
2021/07/09 07:33:22;;;;;;;5.78;2.00;;;39.90;39.00;;;;;;5098450;28;20040;-91
2021/07/09 07:35:48;;;;;;;2.88;2.28;;;40.00;38.80;;;;;;5099964;28;20085;-91
2021/07/09 07:38:14;;;;;;;2.35;2.15;;;40.30;38.80;;;;;;5101521;28;20105;-91
2021/07/09 07:40:40;;;;;;;3.30;2.60;;;40.40;38.40;;;;;;5083431;28;20070;-91
2021/07/09 07:43:06;;;;;;;3.45;2.40;;;40.50;38.30;;;;;;5112639;28;20028;-90
2021/07/09 07:45:33;;;;;;;3.63;1.85;;;40.60;38.10;;;;;;5097166;28;20047;-91
2021/07/09 07:47:58;;;;;;;2.65;1.95;;;40.70;38.00;;;;;;5093181;28;20028;-90
2021/07/09 07:50:26;;;;;;;3.28;2.28;;;40.60;37.70;;;;;;5102087;28;20042;-92
2021/07/09 07:52:53;;;;;;;3.45;2.15;;;40.50;37.50;;;;;;5117601;28;20036;-91
2021/07/09 07:55:19;;;;;;;2.67;2.08;;;40.40;37.70;;;;;;5101085;28;20056;-91
2021/07/09 07:57:44;;;;;;;2.20;2.00;;;40.60;37.50;;;;;;5106066;28;20052;-92
2021/07/09 08:00:11;;;;;;;2.90;2.20;;;40.80;37.60;;;;;;5097461;28;20032;-91
2021/07/09 08:02:37;;;;;;;2.42;2.20;;;41.10;37.70;;;;;;5080989;28;20040;-93
2021/07/09 08:05:05;;;;;;;3.75;2.22;;;40.90;36.80;;;;;;5095292;28;20078;-90
2021/07/09 08:07:31;;;;;;;2.15;1.92;;;40.80;37.40;;;;;;5080469;28;20331;-92
2021/07/09 08:09:57;;;;;;;4.10;2.40;;;41.00;37.60;;;;;;5079263;28;20027;-91
2021/07/09 08:12:23;;;;;;;3.22;2.40;;;41.20;37.00;;;;;;5088987;28;20044;-92
2021/07/09 08:14:49;;;;;;;2.78;2.53;;;41.20;36.50;;;;;;5101189;28;20028;-91
2021/07/09 08:17:14;;;;;;;4.40;2.42;;;41.20;36.90;;;;;;5097733;28;20437;-91
2021/07/09 08:19:40;;;;;;;2.30;2.10;;;41.30;36.80;;;;;;5095795;28;20028;-92
2021/07/09 08:22:09;;;;;;;2.92;2.13;;;41.40;37.10;;;;;;5095996;28;20036;-93
2021/07/09 08:24:35;;;;;;;2.28;2.08;;;41.80;37.20;;;;;;5079120;28;20036;-91
2021/07/09 08:27:01;;;;;;;2.38;2.10;;;42.30;36.90;;;;;;5097076;28;20062;-92
2021/07/09 08:29:27;;;;;;;1.85;1.73;;;42.50;36.50;;;;;;5081402;28;20480;-91
2021/07/09 08:31:54;;;;;;;5.97;2.33;;;42.70;36.30;;;;;;5081403;28;20060;-92
2021/07/09 08:34:22;;;;;;;2.75;2.40;;;42.50;35.60;;;;;;5080739;28;20035;-92
2021/07/09 08:36:48;;;;;;;4.28;2.08;;;42.50;36.30;;;;;;5090204;28;20119;-92
2021/07/09 08:39:22;;;;;;;5.47;2.40;;;43.00;36.30;;;;;;5101067;28;20028;-92
2021/07/09 08:41:49;;;;;;;3.20;1.70;;;43.60;35.90;;;;;;5094850;28;20032;-92
2021/07/09 08:44:15;;;;;;;3.28;2.17;;;43.90;35.30;;;;;;5081943;28;20036;-92
2021/07/09 08:46:47;;;;;;;3.83;2.22;;;44.00;34.80;;;;;;5082090;28;20061;-93
2021/07/09 08:49:16;;;;;;;4.05;2.40;;;44.00;34.40;;;;;;5080478;28;20040;-92
2021/07/09 08:51:43;;;;;;;4.60;2.40;;;44.00;34.80;;;;;;5096319;28;20080;-91
2021/07/09 08:54:14;;;;;;;3.63;2.47;;;44.10;34.80;;;;;;5090103;28;20093;-91
2021/07/09 08:56:40;;;;;;;3.15;2.03;;;44.10;34.80;;;;;;5098249;28;20536;-92
2021/07/09 08:59:06;;;;;;;2.55;2.10;;;44.00;35.00;;;;;;5080694;28;20102;-91
2021/07/09 09:02:02;;;;;;;3.05;2.17;;;44.20;34.70;;;;;;5081936;28;20032;-92
2021/07/09 09:04:36;;;;;;;2.15;1.95;;;44.20;33.90;;;;;;5081354;28;20044;-91
2021/07/09 09:07:11;;;;;;;4.63;2.28;;;43.80;33.50;;;;;;5082224;28;20036;-90
2021/07/09 09:09:39;;;;;;;5.13;2.00;;;43.50;34.20;;;;;;5092473;28;20047;-92
2021/07/09 09:12:08;;;;;;;4.28;2.50;;;43.40;34.50;;;;;;5093160;28;20037;-91
2021/07/09 09:14:37;;;;;;;2.50;2.30;;;43.50;33.90;;;;;;5095402;28;20019;-92
2021/07/09 09:17:26;;;;;;;2.65;2.22;;;43.40;34.20;;;;;;5093509;28;20379;-91
2021/07/09 09:20:18;;;;;;;3.05;2.30;;;43.50;33.80;;;;;;5087791;28;20055;-92
2021/07/09 09:22:50;;;;;;;4.30;2.85;;;44.00;33.10;;;;;;5100272;28;20028;-91
2021/07/09 09:25:17;;;;;;;3.60;2.55;;;43.80;32.40;;;;;;5087974;28;20043;-91
2021/07/09 09:27:55;;;;;;;5.95;2.50;;;43.20;32.60;;;;;;5081527;28;20047;-94
2021/07/09 09:30:21;;;;;;;3.67;2.30;;;43.00;33.40;;;;;;5081987;28;20039;-92
2021/07/09 09:32:48;;;;;;;4.07;2.40;;;43.20;33.50;;;;;;5106969;28;20040;-92
2021/07/09 09:35:25;;;;;;;4.00;2.60;;;43.50;33.20;;;;;;5101154;28;20038;-92
2021/07/09 09:38:05;;;;;;;2.72;2.40;;;43.60;33.30;;;;;;5093233;28;20108;-92
2021/07/09 09:40:38;;;;;;;4.10;2.78;;;43.70;32.90;;;;;;5092570;28;20040;-92
2021/07/09 09:43:08;;;;;;;2.40;2.20;;;43.50;32.70;;;;;;5102969;22;20055;-93
2021/07/09 09:45:34;;;;;;;3.08;2.53;;;43.60;33.20;;;;;;5067483;28;20032;-89
2021/07/09 09:48:11;;;;;;;4.72;2.30;;;44.20;33.40;;;;;;5079321;28;20028;-89
2021/07/09 09:51:00;;;;;;;2.85;2.30;;;44.50;33.00;;;;;;5079207;28;20489;-90
2021/07/09 09:53:34;;;;;;;2.22;2.00;;;44.90;33.00;;;;;;5066140;28;20069;-91
2021/07/09 09:56:07;;;;;;;4.10;2.17;;;45.40;32.40;;;;;;5061901;28;20036;-89
2021/07/09 09:58:34;;;;;;;2.40;2.20;;;45.80;32.40;;;;;;5059128;28;20037;-89
2021/07/09 10:01:00;;;;;;;3.67;2.30;;;46.00;32.60;;;;;;5059697;28;20037;-89
2021/07/09 10:03:26;;;;;;;2.38;2.10;;;45.90;32.60;;;;;;5059588;28;20064;-90
2021/07/09 10:05:52;;;;;;;2.72;2.33;;;46.00;32.70;;;;;;5079347;28;20063;-89
2021/07/09 10:08:21;;;;;;;2.40;2.20;;;45.90;32.30;;;;;;5081783;28;20037;-91
2021/07/09 10:10:48;;;;;;;2.85;2.20;;;45.80;32.20;;;;;;5061883;28;20048;-91
2021/07/09 10:13:16;;;;;;;3.90;2.45;;;45.60;32.30;;;;;;5062448;28;20024;-90
2021/07/09 10:15:43;;;;;;;2.35;2.20;;;45.70;32.20;;;;;;5066465;28;20042;-90
2021/07/09 10:18:11;;;;;;;2.53;2.17;;;45.90;32.90;;;;;;5066716;28;20051;-90
2021/07/09 10:20:37;;;;;;;2.60;2.25;;;46.20;32.10;;;;;;5062973;28;20387;-91
2021/07/09 10:23:03;;;;;;;3.67;2.38;;;46.70;32.10;;;;;;5060629;28;20110;-90
2021/07/09 10:25:32;;;;;;;2.83;2.58;;;46.90;31.90;;;;;;5059359;28;20566;-89
2021/07/09 10:27:58;;;;;;;2.78;2.35;;;47.30;31.90;;;;;;5090783;28;20043;-91
2021/07/09 10:30:38;;;;;;;2.47;2.28;;;47.10;32.20;;;;;;5078309;28;20041;-91
2021/07/09 10:33:24;;;;;;;3.33;3.03;;;46.80;31.20;;;;;;5063194;28;20060;-91
2021/07/09 10:35:51;;;;;;;2.65;2.50;;;46.30;31.20;;;;;;5045692;28;20044;-91
2021/07/09 10:38:19;;;;;;;4.20;2.63;;;46.20;31.30;;;;;;5079271;28;20114;-90
2021/07/09 10:40:46;;;;;;;4.90;2.55;;;46.20;31.10;;;;;;5059696;28;20123;-89
2021/07/09 10:43:14;;;;;;;3.47;2.60;;;46.70;31.40;;;;;;5059368;28;20126;-90
2021/07/09 10:45:42;;;;;;;2.50;2.30;;;46.80;30.70;;;;;;5060111;28;20120;-90
2021/07/09 10:48:16;;;;;;;3.30;2.95;;;46.70;30.60;;;;;;5059460;28;20082;-92
2021/07/09 10:50:44;;;;;;;5.10;3.03;;;46.60;30.00;;;;;;5060416;28;20047;-91
2021/07/09 10:53:10;;;;;;;3.72;3.13;;;45.20;30.30;;;;;;5064589;28;20017;-89
2021/07/09 10:55:46;;;;;;;4.57;2.90;;;43.90;30.70;;;;;;5090922;28;20040;-89
2021/07/09 10:58:22;;;;;;;3.08;2.78;;;43.00;31.30;;;;;;5065725;28;20098;-91
2021/07/09 11:00:56;;;;;;;3.17;2.90;;;42.80;32.00;;;;;;5061014;28;20040;-90
2021/07/09 11:03:35;;;;;;;3.45;2.80;;;43.10;32.20;;;;;;5063421;28;20039;-94
2021/07/09 11:06:10;;;;;;;5.97;2.97;;;43.50;31.80;;;;;;5062414;28;20037;-89
2021/07/09 11:08:40;;;;;;;3.95;2.90;;;43.40;32.00;;;;;;5062171;28;20037;-88
2021/07/09 11:11:31;;;;;;;3.33;2.85;;;43.60;32.00;;;;;;5062457;28;20458;-91
2021/07/09 11:14:12;;;;;;;3.93;2.73;;;44.00;31.80;;;;;;5063543;28;20033;-89
2021/07/09 11:16:46;;;;;;;2.83;2.63;;;44.20;32.00;;;;;;5080943;28;20481;-89
2021/07/09 11:19:17;;;;;;;3.97;2.83;;;44.50;31.70;;;;;;5062121;28;20047;-90
2021/07/09 11:21:44;;;;;;;4.15;2.80;;;44.60;31.60;;;;;;5063458;28;20095;-90
2021/07/09 11:24:20;;;;;;;5.88;3.05;;;44.50;31.50;;;;;;5062574;28;20033;-91
2021/07/09 11:27:04;;;;;;;5.25;3.10;;;44.50;31.70;;;;;;5062301;28;20029;-91
2021/07/09 11:29:36;;;;;;;4.20;3.10;;;44.20;31.20;;;;;;5062077;28;20064;-91
2021/07/09 11:32:21;;;;;;;3.47;2.67;;;43.40;31.70;;;;;;5065377;28;20040;-91
2021/07/09 11:34:48;;;;;;;3.35;2.90;;;42.60;32.40;;;;;;5062483;28;20044;-88
2021/07/09 11:37:25;;;;;;;5.70;3.40;;;42.60;32.50;;;;;;5060940;28;20591;-91
2021/07/09 11:39:57;;;;;;;3.78;3.20;;;42.70;32.60;;;;;;5060116;28;20036;-89
2021/07/09 11:42:31;;;;;;;3.03;2.78;;;42.60;32.50;;;;;;5059309;28;20333;-91
2021/07/09 11:45:03;;;;;;;3.00;2.80;;;42.90;33.10;;;;;;5075524;28;20080;-91
2021/07/09 11:47:30;;;;;;;2.80;2.60;;;42.80;32.40;;;;;;5076032;28;20029;-91
2021/07/09 11:50:04;;;;;;;4.97;2.90;;;43.10;32.80;;;;;;5075622;28;20551;-89
2021/07/09 11:52:33;;;;;;;3.33;2.88;;;43.70;32.70;;;;;;5078452;28;20059;-92
2021/07/09 11:55:05;;;;;;;3.17;2.92;;;44.20;32.40;;;;;;5077245;28;20044;-92
2021/07/09 11:57:36;;;;;;;2.97;2.78;;;44.30;31.90;;;;;;5076239;28;20048;-92
2021/07/09 12:00:06;;;;;;;4.33;3.27;;;44.20;32.10;;;;;;5078276;28;20087;-90
2021/07/09 12:02:32;;;;;;;2.95;2.75;;;44.10;31.80;;;;;;5076225;28;20276;-90
2021/07/09 12:05:00;;;;;;;3.20;2.90;;;43.80;32.40;;;;;;5078669;28;20085;-92
2021/07/09 12:07:31;;;;;;;2.83;2.63;;;44.20;32.40;;;;;;5083113;28;20032;-92
2021/07/09 12:10:17;;;;;;;2.90;2.53;;;44.80;32.60;;;;;;5075785;28;20083;-91
2021/07/09 12:12:51;;;;;;;2.88;2.60;;;45.30;32.30;;;;;;5075470;28;20274;-90
2021/07/09 12:15:26;;;;;;;4.32;2.90;;;45.90;32.10;;;;;;5079411;28;20040;-90
2021/07/09 12:17:58;;;;;;;2.70;2.42;;;45.80;31.60;;;;;;5075104;28;20051;-89
2021/07/09 12:20:31;;;;;;;6.45;3.03;;;45.80;31.90;;;;;;5077434;28;20482;-88
2021/07/09 12:23:02;;;;;;;6.18;2.88;;;46.00;31.60;;;;;;5076030;28;20519;-91
2021/07/09 12:25:33;;;;;;;2.40;2.20;;;46.40;31.80;;;;;;5091344;28;20042;-90
2021/07/09 12:28:05;;;;;;;6.25;2.30;;;46.90;31.50;;;;;;5075977;28;20052;-90
2021/07/09 12:30:41;;;;;;;3.90;3.13;;;47.20;31.40;;;;;;5078743;28;20040;-90
2021/07/09 12:33:15;;;;;;;2.95;2.60;;;47.40;31.10;;;;;;5077450;28;20036;-90
2021/07/09 12:35:41;;;;;;;3.90;2.70;;;47.00;30.90;;;;;;5077841;28;20083;-91
2021/07/09 12:38:13;;;;;;;3.00;2.70;;;46.60;30.60;;;;;;5076818;28;20044;-91
2021/07/09 12:40:44;;;;;;;3.97;2.80;;;46.20;30.80;;;;;;5073474;28;20082;-90
2021/07/09 12:43:25;;;;;;;3.17;2.80;;;46.00;31.10;;;;;;5078241;28;20037;-91
2021/07/09 12:45:55;;;;;;;5.88;2.50;;;45.90;31.20;;;;;;5068479;28;20033;-89
2021/07/09 12:48:37;;;;;;;3.40;2.35;;;45.80;31.50;;;;;;5071199;28;20036;-91
2021/07/09 12:51:22;;;;;;;;;;;46.20;31.50;;;;;;5064865;28;20032;-91
2021/07/09 12:53:55;;;;;;;3.03;2.60;;;46.40;31.10;;;;;;5059211;28;20362;-90